Time;durP1;ratioP1;P1;durP2;ratioP2;P2;SDS_P1;SDS_P2;PMS_P1;PMS_P2;Temp;Humidity;BMP_temperature;BMP_pressure;BME280_temperature;BME280_humidity;BME280_pressure;Samples;Min_cycle;Max_cycle;Signal;HPM_P1;HPM_P2
2024/01/16 00:00:15;;;;;;;4.07;1.58;;;1.50;99.90;;;;;;5100060;28;20089;-34
2024/01/16 00:02:41;;;;;;;3.80;1.60;;;1.50;99.90;;;;;;5100389;28;20024;-34
2024/01/16 00:05:06;;;;;;;4.88;1.35;;;1.60;99.90;;;;;;5100398;28;20148;-34
2024/01/16 00:07:34;;;;;;;5.18;1.45;;;1.50;99.90;;;;;;5101708;28;20024;-35
2024/01/16 00:10:00;;;;;;;3.00;1.40;;;1.50;99.90;;;;;;5099645;28;20051;-34
2024/01/16 00:12:25;;;;;;;5.60;1.50;;;1.40;99.90;;;;;;5102043;28;20023;-34
2024/01/16 00:14:51;;;;;;;3.20;1.25;;;1.40;99.90;;;;;;5101134;28;20566;-35
2024/01/16 00:17:17;;;;;;;3.63;1.27;;;1.30;99.90;;;;;;5098176;28;20030;-34
2024/01/16 00:19:42;;;;;;;4.53;1.48;;;1.30;99.90;;;;;;5101609;28;20036;-36
2024/01/16 00:22:08;;;;;;;2.05;1.27;;;1.30;99.90;;;;;;5099575;28;20473;-34
2024/01/16 00:24:33;;;;;;;3.42;1.20;;;1.20;99.90;;;;;;5100030;28;20055;-35
2024/01/16 00:26:59;;;;;;;3.85;1.33;;;1.20;99.90;;;;;;5099262;28;20160;-35
2024/01/16 00:29:25;;;;;;;8.45;1.80;;;1.10;99.90;;;;;;5100373;28;20122;-36
2024/01/16 00:31:50;;;;;;;5.35;1.27;;;1.10;99.90;;;;;;5100863;28;20058;-36
2024/01/16 00:34:16;;;;;;;4.90;1.17;;;1.10;99.90;;;;;;5100902;28;20051;-36
2024/01/16 00:36:41;;;;;;;2.95;1.20;;;1.20;99.90;;;;;;5100111;28;20097;-37
2024/01/16 00:39:08;;;;;;;3.90;1.20;;;1.20;99.90;;;;;;5099449;28;20024;-36
2024/01/16 00:41:33;;;;;;;3.42;1.58;;;1.20;99.90;;;;;;5100738;28;20024;-35
2024/01/16 00:43:59;;;;;;;3.17;1.45;;;1.20;99.90;;;;;;5100382;28;20034;-35
2024/01/16 00:46:24;;;;;;;4.88;1.85;;;1.20;99.90;;;;;;5100295;28;20053;-35
2024/01/16 00:48:50;;;;;;;4.55;1.83;;;1.20;99.90;;;;;;5099741;28;20036;-37
2024/01/16 00:51:15;;;;;;;6.82;1.95;;;1.20;99.90;;;;;;5099468;28;20031;-36
2024/01/16 00:53:42;;;;;;;3.72;1.75;;;1.20;99.90;;;;;;5100536;28;20457;-36
2024/01/16 00:56:07;;;;;;;3.45;1.50;;;1.20;99.90;;;;;;5099562;28;20027;-36
2024/01/16 00:58:33;;;;;;;3.95;1.50;;;1.20;99.90;;;;;;5098333;28;20062;-36
2024/01/16 01:00:58;;;;;;;2.72;1.52;;;1.20;99.90;;;;;;5100559;28;20027;-36
2024/01/16 01:03:24;;;;;;;5.70;1.60;;;1.30;99.90;;;;;;5100885;28;20104;-36
2024/01/16 01:05:49;;;;;;;2.20;1.38;;;1.30;99.90;;;;;;5100626;28;20044;-35
2024/01/16 01:08:16;;;;;;;4.95;1.73;;;1.30;99.90;;;;;;5100251;28;20497;-35
2024/01/16 01:10:42;;;;;;;5.38;1.38;;;1.40;99.90;;;;;;5101160;28;20124;-35
2024/01/16 01:13:08;;;;;;;4.18;1.40;;;1.40;99.90;;;;;;5099706;28;20028;-35
2024/01/16 01:15:33;;;;;;;5.03;1.45;;;1.40;99.90;;;;;;5100566;28;20419;-35
2024/01/16 01:17:59;;;;;;;5.25;1.50;;;1.40;99.90;;;;;;5099830;28;20019;-37
2024/01/16 01:20:25;;;;;;;2.05;1.13;;;1.40;99.90;;;;;;5100495;28;20073;-35
2024/01/16 01:22:51;;;;;;;3.13;1.20;;;1.40;99.90;;;;;;5099077;28;20053;-35
2024/01/16 01:25:17;;;;;;;3.47;1.58;;;1.40;99.90;;;;;;5099824;28;20023;-38
2024/01/16 01:27:42;;;;;;;5.00;1.30;;;1.40;99.90;;;;;;5099223;28;20131;-34
2024/01/16 01:30:11;;;;;;;4.90;1.50;;;1.40;99.90;;;;;;5103040;28;20030;-34
2024/01/16 01:32:38;;;;;;;3.10;1.58;;;1.30;99.90;;;;;;5103411;28;20547;-34
2024/01/16 01:35:07;;;;;;;2.67;1.40;;;1.30;99.90;;;;;;5103842;28;20043;-42
2024/01/16 01:37:32;;;;;;;3.15;1.30;;;1.20;99.90;;;;;;5103397;28;20072;-35
2024/01/16 01:39:58;;;;;;;2.83;1.27;;;1.20;99.90;;;;;;5103046;28;20752;-35
2024/01/16 01:42:24;;;;;;;5.55;1.52;;;1.20;99.90;;;;;;5103206;28;20066;-35
2024/01/16 01:44:49;;;;;;;4.20;1.63;;;1.10;99.90;;;;;;5103301;28;20122;-37
2024/01/16 01:47:15;;;;;;;2.95;1.58;;;1.10;99.90;;;;;;5102345;28;20108;-34
2024/01/16 01:49:41;;;;;;;3.65;1.40;;;1.10;99.90;;;;;;5102808;28;20091;-35
2024/01/16 01:52:09;;;;;;;3.78;1.30;;;1.10;99.90;;;;;;5103546;28;20024;-34
2024/01/16 01:54:36;;;;;;;3.92;1.35;;;1.00;99.90;;;;;;5102964;28;20390;-34
2024/01/16 01:57:03;;;;;;;7.38;1.30;;;1.00;99.90;;;;;;5101978;28;20054;-34
2024/01/16 01:59:30;;;;;;;6.38;1.33;;;1.00;99.90;;;;;;5103514;28;20035;-34
2024/01/16 02:01:56;;;;;;;5.80;1.30;;;1.00;99.90;;;;;;5083748;28;20016;-34
2024/01/16 02:04:24;;;;;;;3.05;1.40;;;1.00;99.90;;;;;;5103546;28;20036;-35
2024/01/16 02:06:50;;;;;;;3.28;1.30;;;0.90;99.90;;;;;;5101638;28;20314;-44
2024/01/16 02:09:16;;;;;;;2.58;1.13;;;1.00;99.90;;;;;;5083141;28;20791;-35
2024/01/16 02:11:42;;;;;;;4.03;1.20;;;0.90;99.90;;;;;;5103087;28;20470;-35
2024/01/16 02:14:09;;;;;;;1.77;1.30;;;0.90;99.90;;;;;;5102172;28;20116;-36
2024/01/16 02:16:44;;;;;;;2.95;1.20;;;0.90;99.90;;;;;;5102997;28;20039;-36
2024/01/16 02:19:10;;;;;;;2.83;1.48;;;0.90;99.90;;;;;;5101882;28;20023;-35
2024/01/16 02:21:47;;;;;;;2.97;1.50;;;0.90;99.90;;;;;;5103703;28;20024;-35
2024/01/16 02:24:13;;;;;;;4.05;1.50;;;1.00;99.90;;;;;;5102517;28;20426;-35
2024/01/16 02:26:39;;;;;;;3.40;1.35;;;1.00;99.90;;;;;;5102612;28;20094;-35
2024/01/16 02:29:04;;;;;;;4.70;1.50;;;1.00;99.90;;;;;;5101468;28;20045;-34
2024/01/16 02:31:31;;;;;;;5.05;1.40;;;1.00;99.90;;;;;;5101950;28;20036;-35
2024/01/16 02:33:57;;;;;;;4.28;1.52;;;1.10;99.90;;;;;;5102524;28;20042;-35
2024/01/16 02:36:23;;;;;;;4.50;1.60;;;1.10;99.90;;;;;;5102157;28;20019;-35
2024/01/16 02:38:49;;;;;;;4.03;1.95;;;1.20;99.90;;;;;;5101423;28;20137;-35
2024/01/16 02:41:17;;;;;;;3.70;1.75;;;1.20;99.90;;;;;;5101423;28;20047;-35
2024/01/16 02:43:42;;;;;;;6.25;2.53;;;1.20;99.90;;;;;;5103638;28;20028;-35
2024/01/16 02:46:08;;;;;;;7.90;3.13;;;1.30;99.90;;;;;;5102631;28;20059;-35
2024/01/16 02:48:35;;;;;;;5.80;3.63;;;1.30;99.90;;;;;;5102376;28;20028;-34
2024/01/16 02:51:01;;;;;;;8.90;3.53;;;1.30;99.90;;;;;;5101622;28;20024;-34
2024/01/16 02:53:28;;;;;;;6.82;4.00;;;1.30;99.90;;;;;;5103276;28;20035;-35
2024/01/16 02:55:54;;;;;;;6.80;3.90;;;1.30;99.90;;;;;;5102250;28;20033;-34
2024/01/16 02:58:21;;;;;;;5.38;3.67;;;1.40;99.90;;;;;;5102377;28;20020;-34
2024/01/16 03:00:47;;;;;;;6.53;3.42;;;1.40;99.90;;;;;;5102995;28;20023;-35
2024/01/16 03:03:12;;;;;;;6.93;3.40;;;1.50;99.90;;;;;;5102116;28;20023;-35
2024/01/16 03:05:38;;;;;;;7.28;3.72;;;1.50;99.90;;;;;;5100507;28;20023;-34
2024/01/16 03:08:05;;;;;;;7.30;3.60;;;1.50;99.90;;;;;;5102221;28;20024;-34
2024/01/16 03:10:31;;;;;;;5.78;3.50;;;1.50;99.90;;;;;;5102763;28;20044;-35
2024/01/16 03:12:57;;;;;;;5.03;2.92;;;1.60;99.90;;;;;;5100953;28;20031;-35
2024/01/16 03:15:22;;;;;;;5.88;2.97;;;1.50;99.90;;;;;;5102225;28;20499;-35
2024/01/16 03:17:51;;;;;;;5.22;2.58;;;1.60;99.90;;;;;;5102781;28;20431;-35
2024/01/16 03:20:18;;;;;;;3.83;2.33;;;1.60;99.90;;;;;;5102020;28;20020;-35
2024/01/16 03:22:44;;;;;;;5.80;2.70;;;1.60;99.90;;;;;;5101734;28;20077;-35
2024/01/16 03:25:12;;;;;;;3.92;2.60;;;1.60;99.90;;;;;;5099990;28;20035;-35
2024/01/16 03:27:37;;;;;;;3.95;2.60;;;1.60;99.90;;;;;;5102497;28;20031;-35
2024/01/16 03:30:04;;;;;;;5.78;2.65;;;1.60;99.90;;;;;;5102338;28;20020;-34
2024/01/16 03:32:29;;;;;;;5.45;2.90;;;1.60;99.90;;;;;;5102737;28;20022;-33
2024/01/16 03:34:55;;;;;;;3.70;2.55;;;1.60;99.90;;;;;;5101671;28;20031;-35
2024/01/16 03:37:20;;;;;;;5.75;2.83;;;1.60;99.90;;;;;;5102289;28;20027;-34
2024/01/16 03:39:46;;;;;;;5.32;3.05;;;1.60;99.90;;;;;;5101168;28;20028;-35
2024/01/16 03:42:14;;;;;;;8.30;3.35;;;1.60;99.90;;;;;;5101894;28;20042;-34
2024/01/16 03:44:40;;;;;;;4.75;2.80;;;1.60;99.90;;;;;;5100775;28;20028;-35
2024/01/16 03:47:06;;;;;;;5.93;2.75;;;1.60;99.90;;;;;;5100678;28;20065;-35
2024/01/16 03:49:32;;;;;;;4.25;2.58;;;1.60;99.90;;;;;;5101196;28;20750;-35
2024/01/16 03:52:00;;;;;;;3.78;3.00;;;1.60;99.90;;;;;;5100749;28;20030;-35
2024/01/16 03:54:26;;;;;;;4.68;3.28;;;1.60;99.90;;;;;;5101171;28;20083;-36
2024/01/16 03:56:52;;;;;;;6.72;3.17;;;1.60;99.90;;;;;;5101213;28;20041;-35
2024/01/16 03:59:19;;;;;;;8.02;3.08;;;1.70;99.90;;;;;;5101373;28;20031;-35
2024/01/16 04:01:45;;;;;;;4.68;3.08;;;1.60;99.90;;;;;;5100505;28;20031;-36
2024/01/16 04:04:11;;;;;;;6.32;3.05;;;1.60;99.90;;;;;;5101149;28;20024;-35
2024/01/16 04:06:38;;;;;;;4.47;2.97;;;1.60;99.90;;;;;;5100311;28;20028;-35
2024/01/16 04:09:05;;;;;;;6.13;3.65;;;1.60;99.90;;;;;;5099580;28;20151;-36
2024/01/16 04:11:30;;;;;;;5.95;2.78;;;1.60;99.90;;;;;;5081059;28;20054;-35
2024/01/16 04:13:56;;;;;;;10.90;3.10;;;1.60;99.90;;;;;;5095171;28;20410;-35
2024/01/16 04:16:22;;;;;;;6.70;2.80;;;1.60;99.90;;;;;;5100308;28;20527;-35
2024/01/16 04:18:47;;;;;;;4.03;2.90;;;1.60;99.90;;;;;;5101395;28;20062;-35
2024/01/16 04:21:13;;;;;;;5.05;2.88;;;1.60;99.90;;;;;;5100820;28;20035;-35
2024/01/16 04:23:39;;;;;;;5.25;2.28;;;1.60;99.90;;;;;;5100232;28;20020;-35
2024/01/16 04:26:05;;;;;;;4.07;2.17;;;1.70;99.90;;;;;;5098996;28;20052;-35
2024/01/16 04:28:30;;;;;;;3.05;2.22;;;1.60;99.90;;;;;;5101355;28;20502;-35
2024/01/16 04:30:56;;;;;;;6.20;2.92;;;1.70;99.90;;;;;;5093012;28;20020;-35
2024/01/16 04:33:21;;;;;;;4.85;2.95;;;1.70;99.90;;;;;;5083769;28;20028;-35
2024/01/16 04:35:47;;;;;;;3.58;2.35;;;1.80;99.90;;;;;;5100101;28;20028;-35
2024/01/16 04:38:13;;;;;;;2.92;2.22;;;1.70;99.90;;;;;;5100542;28;20088;-35
2024/01/16 04:40:38;;;;;;;4.10;2.60;;;1.70;99.90;;;;;;5100772;28;20024;-35
2024/01/16 04:43:04;;;;;;;3.08;2.00;;;1.80;99.90;;;;;;5100517;28;20436;-35
2024/01/16 04:45:29;;;;;;;5.35;2.10;;;1.80;99.90;;;;;;5099034;28;20027;-35
2024/01/16 04:47:55;;;;;;;2.67;2.10;;;1.80;99.90;;;;;;5100153;28;20931;-35
2024/01/16 04:50:20;;;;;;;4.60;2.00;;;1.90;99.90;;;;;;5100036;28;20829;-34
2024/01/16 04:52:46;;;;;;;3.45;2.25;;;1.80;99.90;;;;;;5100517;28;20902;-35
2024/01/16 04:55:11;;;;;;;5.03;2.60;;;1.80;99.90;;;;;;5080583;28;20035;-35
2024/01/16 04:57:37;;;;;;;4.32;2.10;;;1.80;99.90;;;;;;5099575;28;20072;-34
2024/01/16 05:00:06;;;;;;;4.90;2.03;;;1.80;99.90;;;;;;5099644;28;20031;-34
2024/01/16 05:02:33;;;;;;;3.55;2.28;;;1.70;99.90;;;;;;5099756;28;20061;-33
2024/01/16 05:04:59;;;;;;;6.00;2.15;;;1.70;99.90;;;;;;5084483;28;20047;-35
2024/01/16 05:07:26;;;;;;;2.85;2.00;;;1.70;99.90;;;;;;5104343;28;20054;-34
2024/01/16 05:09:51;;;;;;;4.22;2.28;;;1.70;99.90;;;;;;5093714;28;20126;-33
2024/01/16 05:12:17;;;;;;;4.43;2.50;;;1.70;99.90;;;;;;5083489;28;20778;-36
2024/01/16 05:14:43;;;;;;;2.33;1.88;;;1.80;99.90;;;;;;5083141;28;20438;-34
2024/01/16 05:17:09;;;;;;;5.10;2.15;;;1.70;99.90;;;;;;5082350;28;20024;-35
2024/01/16 05:19:34;;;;;;;4.15;2.08;;;1.70;99.90;;;;;;5082766;28;20818;-35
2024/01/16 05:22:00;;;;;;;3.47;2.00;;;1.70;99.90;;;;;;5084195;28;20020;-35
2024/01/16 05:24:25;;;;;;;3.92;2.08;;;1.70;99.90;;;;;;5084554;28;20776;-35
2024/01/16 05:26:51;;;;;;;3.63;2.03;;;1.70;99.90;;;;;;5081470;28;20058;-36
2024/01/16 05:29:18;;;;;;;3.50;2.83;;;1.70;99.90;;;;;;5084310;28;20111;-36
2024/01/16 05:31:44;;;;;;;3.03;2.53;;;1.70;99.90;;;;;;5082943;28;20024;-35
2024/01/16 05:34:10;;;;;;;3.58;2.50;;;1.80;99.90;;;;;;5081182;28;20860;-35
2024/01/16 05:36:38;;;;;;;3.47;2.47;;;1.80;99.90;;;;;;5083154;28;20039;-35
2024/01/16 05:39:04;;;;;;;6.47;2.90;;;1.80;99.90;;;;;;5082399;28;20051;-35
2024/01/16 05:41:33;;;;;;;5.25;2.40;;;1.70;99.90;;;;;;5082866;28;20117;-36
2024/01/16 05:43:59;;;;;;;7.03;2.80;;;1.70;99.90;;;;;;5082440;28;20099;-35
2024/01/16 05:46:25;;;;;;;4.88;2.15;;;1.70;99.90;;;;;;5083022;28;20199;-35
2024/01/16 05:48:50;;;;;;;4.05;2.42;;;1.70;99.90;;;;;;5084228;28;20042;-36
2024/01/16 05:51:16;;;;;;;3.97;2.45;;;1.70;99.90;;;;;;5083105;28;20036;-42
2024/01/16 05:53:42;;;;;;;5.40;2.15;;;1.70;99.90;;;;;;5081802;28;20035;-35
2024/01/16 05:56:07;;;;;;;4.38;1.80;;;1.70;99.90;;;;;;5081192;28;20183;-36
2024/01/16 05:58:38;;;;;;;3.50;1.65;;;1.60;99.90;;;;;;5083599;28;20024;-38
2024/01/16 06:01:05;;;;;;;5.68;1.92;;;1.70;99.90;;;;;;5081228;28;20091;-35
2024/01/16 06:03:31;;;;;;;5.43;1.70;;;1.60;99.90;;;;;;5083696;28;20036;-44
2024/01/16 06:05:56;;;;;;;5.97;1.92;;;1.60;99.90;;;;;;5082761;28;20013;-35
2024/01/16 06:08:22;;;;;;;3.67;1.63;;;1.60;99.90;;;;;;5082472;28;20471;-35
2024/01/16 06:10:47;;;;;;;3.28;1.70;;;1.60;99.90;;;;;;5100750;28;20050;-33
2024/01/16 06:13:21;;;;;;;3.90;2.53;;;1.60;99.90;;;;;;5102200;28;20044;-35
2024/01/16 06:15:47;;;;;;;6.28;1.58;;;1.60;99.90;;;;;;5100590;28;20595;-34
2024/01/16 06:18:13;;;;;;;5.13;1.40;;;1.60;99.90;;;;;;5102916;28;20020;-35
2024/01/16 06:20:38;;;;;;;6.30;2.47;;;1.70;99.90;;;;;;5101535;28;20115;-34
2024/01/16 06:23:04;;;;;;;4.72;1.88;;;1.70;99.90;;;;;;5101884;28;20016;-34
2024/01/16 06:25:29;;;;;;;2.83;1.30;;;1.70;99.90;;;;;;5103476;28;20020;-34
2024/01/16 06:27:55;;;;;;;3.90;1.58;;;1.70;99.90;;;;;;5101461;28;20664;-35
2024/01/16 06:30:22;;;;;;;2.10;1.50;;;1.70;99.90;;;;;;5100229;28;20757;-34
2024/01/16 06:32:51;;;;;;;1.88;1.15;;;1.70;99.90;;;;;;5102745;28;20387;-34
2024/01/16 06:35:17;;;;;;;5.20;1.60;;;1.80;99.90;;;;;;5100330;28;20046;-34
2024/01/16 06:37:43;;;;;;;4.25;1.60;;;1.80;99.90;;;;;;5103116;28;20027;-35
2024/01/16 06:40:09;;;;;;;3.58;1.80;;;1.80;99.90;;;;;;5097839;28;20027;-35
2024/01/16 06:42:38;;;;;;;5.70;1.70;;;1.80;99.90;;;;;;5101172;28;20131;-34
2024/01/16 06:45:04;;;;;;;4.50;1.90;;;1.80;99.90;;;;;;5101795;28;20022;-34
2024/01/16 06:47:31;;;;;;;2.70;1.77;;;1.80;99.90;;;;;;5083021;28;20028;-34
2024/01/16 06:49:56;;;;;;;5.53;2.00;;;1.80;99.90;;;;;;5100353;28;20046;-35
2024/01/16 06:52:22;;;;;;;2.97;1.67;;;1.80;99.90;;;;;;5101523;28;20382;-35
2024/01/16 06:54:47;;;;;;;4.28;1.90;;;1.80;99.90;;;;;;5102098;28;20778;-36
2024/01/16 06:57:13;;;;;;;6.22;2.08;;;1.80;99.90;;;;;;5101251;28;20488;-35
2024/01/16 06:59:38;;;;;;;5.82;1.85;;;1.80;99.90;;;;;;5103209;28;20562;-35
2024/01/16 07:02:04;;;;;;;5.82;1.80;;;1.80;99.90;;;;;;5101250;28;20023;-35
2024/01/16 07:04:30;;;;;;;6.25;2.08;;;1.80;99.90;;;;;;5102489;28;20051;-36
2024/01/16 07:06:55;;;;;;;5.15;2.10;;;1.80;99.90;;;;;;5102441;28;20021;-35
2024/01/16 07:09:21;;;;;;;4.38;2.00;;;1.80;99.90;;;;;;5101676;28;20436;-35
2024/01/16 07:11:47;;;;;;;6.10;2.03;;;1.80;99.90;;;;;;5099268;28;20865;-35
2024/01/16 07:14:13;;;;;;;3.00;2.08;;;1.80;99.90;;;;;;5098511;28;20588;-35
2024/01/16 07:16:38;;;;;;;5.20;2.15;;;1.80;99.90;;;;;;5099688;28;20034;-35
2024/01/16 07:19:04;;;;;;;5.32;2.10;;;1.80;99.90;;;;;;5096486;28;20024;-35
2024/01/16 07:21:30;;;;;;;4.55;2.03;;;1.80;99.90;;;;;;5099298;28;20347;-35
2024/01/16 07:23:55;;;;;;;3.33;2.22;;;1.80;99.90;;;;;;5098773;28;20027;-35
2024/01/16 07:26:22;;;;;;;5.20;2.88;;;1.80;99.90;;;;;;5098759;28;20031;-36
2024/01/16 07:28:48;;;;;;;3.50;2.25;;;1.70;99.90;;;;;;5099040;28;20028;-35
2024/01/16 07:31:16;;;;;;;6.97;2.60;;;1.80;99.90;;;;;;5099437;28;20023;-35
2024/01/16 07:33:42;;;;;;;7.20;2.60;;;1.80;99.90;;;;;;5100685;28;20055;-35
2024/01/16 07:36:09;;;;;;;6.50;2.60;;;1.80;99.90;;;;;;5100827;28;20031;-35
2024/01/16 07:38:36;;;;;;;7.15;3.00;;;1.80;99.90;;;;;;5099154;28;20638;-34
2024/01/16 07:41:02;;;;;;;7.35;3.10;;;1.80;99.90;;;;;;5099618;28;20764;-34
2024/01/16 07:43:29;;;;;;;4.63;3.55;;;1.80;99.90;;;;;;5101359;28;20028;-35
2024/01/16 07:45:57;;;;;;;4.47;3.08;;;1.80;99.90;;;;;;5099619;28;20575;-36
2024/01/16 07:48:23;;;;;;;6.90;3.78;;;1.90;99.90;;;;;;5099054;28;20019;-35
2024/01/16 07:50:49;;;;;;;6.65;3.90;;;1.90;99.90;;;;;;5099630;28;20019;-35
2024/01/16 07:53:15;;;;;;;6.10;4.20;;;1.90;99.90;;;;;;5098735;28;20016;-36
2024/01/16 07:55:42;;;;;;;9.10;4.70;;;1.90;99.90;;;;;;5099633;28;20495;-35
2024/01/16 07:58:09;;;;;;;7.00;4.50;;;1.90;99.90;;;;;;5099415;28;20096;-34
2024/01/16 08:00:35;;;;;;;7.97;4.90;;;1.90;99.90;;;;;;5099843;28;20032;-34
2024/01/16 08:03:01;;;;;;;6.68;4.20;;;1.90;99.90;;;;;;5100587;28;20019;-33
2024/01/16 08:05:27;;;;;;;8.98;6.03;;;1.90;99.90;;;;;;5100432;28;20584;-33
2024/01/16 08:07:53;;;;;;;8.98;5.00;;;1.90;99.90;;;;;;5097316;27;20034;-34
2024/01/16 08:10:19;;;;;;;10.30;5.47;;;1.90;99.90;;;;;;5091975;27;20526;-34
2024/01/16 08:12:45;;;;;;;13.25;6.47;;;1.90;99.90;;;;;;5098852;28;20035;-38
2024/01/16 08:15:10;;;;;;;9.95;6.20;;;1.90;99.90;;;;;;5099657;28;20557;-35
2024/01/16 08:17:36;;;;;;;9.40;5.82;;;1.90;99.90;;;;;;5099012;28;20031;-35
2024/01/16 08:20:03;;;;;;;12.63;6.53;;;1.90;99.90;;;;;;5092171;28;20086;-42
2024/01/16 08:22:29;;;;;;;8.05;5.53;;;1.90;99.90;;;;;;5095390;28;20034;-34
2024/01/16 08:24:55;;;;;;;11.20;6.03;;;1.90;99.90;;;;;;5098775;28;20035;-34
2024/01/16 08:27:20;;;;;;;7.82;6.20;;;1.90;99.90;;;;;;5093332;27;20041;-33
2024/01/16 08:29:48;;;;;;;10.65;5.93;;;1.90;99.90;;;;;;5097232;28;20062;-35
2024/01/16 08:32:17;;;;;;;11.77;6.40;;;1.90;99.90;;;;;;5093777;28;20024;-35
2024/01/16 08:34:43;;;;;;;11.25;5.43;;;1.80;99.90;;;;;;5095084;28;20051;-35
2024/01/16 08:37:09;;;;;;;11.13;5.93;;;1.80;99.90;;;;;;5098526;28;20020;-34
2024/01/16 08:39:34;;;;;;;10.23;6.13;;;1.80;99.90;;;;;;5099457;28;20030;-34
2024/01/16 08:42:02;;;;;;;8.77;5.82;;;1.90;99.90;;;;;;5099224;28;20378;-35
2024/01/16 08:44:28;;;;;;;9.35;5.60;;;1.90;99.90;;;;;;5100288;28;20088;-35
2024/01/16 08:46:53;;;;;;;9.50;5.90;;;1.90;99.90;;;;;;5100061;28;20467;-35
2024/01/16 08:49:19;;;;;;;11.80;5.47;;;1.90;99.90;;;;;;5099459;28;20019;-35
2024/01/16 08:51:44;;;;;;;9.15;5.57;;;1.90;99.90;;;;;;5100479;28;20140;-35
2024/01/16 08:54:10;;;;;;;9.15;6.30;;;1.90;99.90;;;;;;5099482;28;20054;-35
2024/01/16 08:56:45;;;;;;;;;;;;;;;;;;;;;
2024/01/16 08:59:11;;;;;;;12.10;5.70;;;1.90;99.90;;;;;;5094494;28;20046;-35
2024/01/16 09:01:37;;;;;;;7.75;5.07;;;1.90;99.90;;;;;;5100678;28;20031;-35
2024/01/16 09:04:02;;;;;;;9.93;5.28;;;1.90;99.90;;;;;;5099674;28;20027;-36
2024/01/16 09:06:28;;;;;;;8.27;4.97;;;1.90;99.90;;;;;;5100521;28;20534;-35
2024/01/16 09:08:53;;;;;;;7.70;4.70;;;1.90;99.90;;;;;;5099273;28;20113;-35
2024/01/16 09:11:19;;;;;;;6.00;4.35;;;1.80;99.90;;;;;;5099801;28;20157;-35
2024/01/16 09:13:45;;;;;;;9.60;4.70;;;1.80;99.90;;;;;;5101320;28;20730;-35
2024/01/16 09:16:10;;;;;;;7.28;4.30;;;1.80;99.90;;;;;;5099309;28;20023;-41
2024/01/16 09:18:36;;;;;;;9.65;4.38;;;1.80;99.90;;;;;;5099391;28;20136;-34
2024/01/16 09:21:01;;;;;;;7.97;4.70;;;1.80;99.90;;;;;;5098734;28;20027;-35
2024/01/16 09:23:27;;;;;;;6.30;4.63;;;1.90;99.90;;;;;;5099474;28;20543;-34
2024/01/16 09:25:53;;;;;;;8.63;5.00;;;1.90;99.90;;;;;;5099147;28;20031;-34
2024/01/16 09:28:18;;;;;;;7.38;4.18;;;2.00;99.90;;;;;;5099794;28;20027;-34
2024/01/16 09:30:44;;;;;;;8.93;4.00;;;2.00;99.90;;;;;;5099251;28;20069;-33
2024/01/16 09:33:10;;;;;;;9.13;4.20;;;2.00;99.90;;;;;;5098490;28;20187;-34
2024/01/16 09:35:36;;;;;;;8.02;4.57;;;2.00;99.90;;;;;;5098812;28;20036;-33
2024/01/16 09:38:04;;;;;;;6.43;3.63;;;2.00;99.90;;;;;;5097782;28;20049;-34
2024/01/16 09:40:30;;;;;;;11.00;4.32;;;2.00;99.90;;;;;;5097422;28;20034;-33
2024/01/16 09:42:56;;;;;;;7.22;3.97;;;2.00;99.90;;;;;;5098528;28;20270;-34
2024/01/16 09:45:22;;;;;;;5.88;3.95;;;2.00;99.90;;;;;;5098362;28;20027;-33
2024/01/16 09:47:50;;;;;;;10.75;4.30;;;2.00;99.90;;;;;;5100215;28;20523;-34
2024/01/16 09:50:19;;;;;;;6.28;4.30;;;2.00;99.90;;;;;;5100940;28;20066;-33
2024/01/16 09:52:48;;;;;;;4.93;3.63;;;2.00;99.90;;;;;;5103005;28;20099;-35
2024/01/16 09:55:15;;;;;;;6.82;3.55;;;2.00;99.90;;;;;;5101824;28;20127;-33
2024/01/16 09:57:41;;;;;;;7.40;3.97;;;2.00;99.90;;;;;;5103051;28;20027;-37
2024/01/16 10:00:12;;;;;;;6.38;3.40;;;1.90;99.90;;;;;;5101364;28;20040;-34
2024/01/16 10:02:42;;;;;;;7.07;3.72;;;1.90;99.90;;;;;;5104172;28;20027;-34
2024/01/16 10:05:09;;;;;;;6.63;3.75;;;1.90;99.90;;;;;;5102419;28;20032;-34
2024/01/16 10:07:38;;;;;;;7.95;3.78;;;1.90;99.90;;;;;;5101544;28;20128;-35
2024/01/16 10:10:04;;;;;;;5.97;3.75;;;1.90;99.90;;;;;;5100830;28;20063;-34
2024/01/16 10:12:30;;;;;;;10.00;4.40;;;2.00;99.90;;;;;;5101258;28;20024;-34
2024/01/16 10:14:56;;;;;;;8.32;3.95;;;2.00;99.90;;;;;;5100025;28;20446;-34
2024/01/16 10:17:23;;;;;;;7.30;3.75;;;2.00;99.90;;;;;;5102485;28;20024;-35
2024/01/16 10:19:51;;;;;;;6.40;4.47;;;2.00;99.90;;;;;;5102422;28;20031;-34
2024/01/16 10:22:22;;;;;;;8.98;3.88;;;2.10;99.90;;;;;;5100153;28;20533;-34
2024/01/16 10:24:47;;;;;;;7.93;3.75;;;2.10;99.90;;;;;;5100785;28;20827;-35
2024/01/16 10:27:16;;;;;;;7.97;3.70;;;2.10;99.90;;;;;;5099918;28;20057;-33
2024/01/16 10:29:56;;;;;;;6.82;3.30;;;2.20;99.90;;;;;;5101037;28;20531;-35
2024/01/16 10:32:30;;;;;;;9.20;3.60;;;2.20;99.90;;;;;;5100252;28;20019;-35
2024/01/16 10:35:09;;;;;;;7.78;4.03;;;2.20;99.90;;;;;;5100244;28;20067;-35
2024/01/16 10:37:51;;;;;;;4.80;3.35;;;2.30;99.90;;;;;;5101501;28;20031;-35
2024/01/16 10:40:22;;;;;;;6.75;3.60;;;2.30;99.90;;;;;;5102033;28;20031;-35
2024/01/16 10:42:58;;;;;;;6.95;3.95;;;2.30;99.90;;;;;;5101638;28;20062;-35
2024/01/16 10:45:24;;;;;;;7.45;3.40;;;2.30;99.90;;;;;;5101963;28;20615;-35
2024/01/16 10:48:16;;;;;;;7.18;3.50;;;2.30;99.90;;;;;;5101029;28;20111;-35
2024/01/16 10:50:41;;;;;;;6.82;3.30;;;2.30;99.90;;;;;;5097704;28;20035;-35
2024/01/16 10:53:08;;;;;;;5.15;3.55;;;2.30;99.90;;;;;;5101104;28;20019;-34
2024/01/16 10:55:46;;;;;;;7.68;3.70;;;2.30;99.90;;;;;;5102298;28;20027;-35
2024/01/16 10:58:13;;;;;;;7.10;3.83;;;2.30;99.90;;;;;;5102267;28;20039;-36
2024/01/16 11:00:41;;;;;;;6.45;3.45;;;2.20;99.90;;;;;;5102662;28;20542;-36
2024/01/16 11:03:16;;;;;;;5.40;3.25;;;2.20;99.90;;;;;;5101173;28;20391;-35
2024/01/16 11:05:44;;;;;;;6.55;3.30;;;2.20;99.90;;;;;;5102676;28;20044;-35
2024/01/16 11:08:13;;;;;;;6.65;2.97;;;2.20;99.90;;;;;;5101437;28;20476;-35
2024/01/16 11:10:40;;;;;;;6.60;3.28;;;2.30;99.90;;;;;;5102302;28;20208;-34
2024/01/16 11:13:07;;;;;;;5.85;3.13;;;2.40;99.90;;;;;;5101320;28;20079;-34
2024/01/16 11:15:33;;;;;;;5.63;2.55;;;2.40;99.90;;;;;;5101024;28;20489;-35
2024/01/16 11:18:01;;;;;;;5.78;3.05;;;2.50;99.90;;;;;;5100066;28;20102;-34
2024/01/16 11:20:28;;;;;;;4.93;2.75;;;2.50;99.90;;;;;;5102114;28;20115;-35
2024/01/16 11:22:59;;;;;;;6.10;3.45;;;2.60;99.90;;;;;;5101157;28;20098;-34
2024/01/16 11:25:33;;;;;;;6.82;3.22;;;2.60;99.90;;;;;;5101715;28;20493;-35
2024/01/16 11:28:13;;;;;;;4.75;2.70;;;2.60;99.90;;;;;;5101798;28;20558;-35
2024/01/16 11:30:43;;;;;;;4.47;2.75;;;2.60;99.90;;;;;;5102411;28;20019;-35
2024/01/16 11:33:31;;;;;;;3.65;2.60;;;2.70;99.90;;;;;;5100881;28;20426;-34
2024/01/16 11:35:57;;;;;;;6.50;2.90;;;2.70;99.90;;;;;;5100929;28;20039;-36
2024/01/16 11:38:26;;;;;;;6.45;3.20;;;2.70;99.90;;;;;;5100776;28;20119;-34
2024/01/16 11:40:53;;;;;;;5.57;3.20;;;2.70;99.90;;;;;;5101174;28;20028;-34
2024/01/16 11:43:34;;;;;;;5.15;3.17;;;2.70;99.90;;;;;;5099561;28;20024;-34
2024/01/16 11:46:01;;;;;;;5.13;3.17;;;2.70;99.90;;;;;;5098710;28;20032;-34
2024/01/16 11:48:27;;;;;;;6.72;3.28;;;2.70;99.90;;;;;;5099568;28;20027;-35
2024/01/16 11:50:53;;;;;;;6.53;2.95;;;2.70;99.90;;;;;;5099643;28;20097;-35
2024/01/16 11:53:38;;;;;;;4.18;2.78;;;2.70;99.90;;;;;;5100481;28;20011;-35
2024/01/16 11:56:18;;;;;;;5.40;3.40;;;2.70;99.90;;;;;;5101413;28;20089;-35
2024/01/16 11:59:04;;;;;;;7.00;3.58;;;2.70;99.90;;;;;;5101277;28;20022;-33
2024/01/16 12:01:31;;;;;;;6.43;3.85;;;2.70;99.90;;;;;;5100986;28;20031;-33
2024/01/16 12:04:04;;;;;;;7.22;3.92;;;2.70;99.90;;;;;;5097891;28;20076;-34
2024/01/16 12:06:30;;;;;;;6.95;3.55;;;2.70;99.90;;;;;;5098909;28;20865;-34
2024/01/16 12:09:12;;;;;;;6.78;3.47;;;2.80;99.90;;;;;;5098295;28;20032;-36
2024/01/16 12:11:37;;;;;;;7.13;3.60;;;2.80;99.90;;;;;;5098940;28;20092;-34
2024/01/16 12:14:03;;;;;;;7.05;3.17;;;2.80;99.90;;;;;;5096672;28;20035;-34
2024/01/16 12:16:32;;;;;;;7.40;3.25;;;2.90;99.90;;;;;;5098841;28;20107;-34
2024/01/16 12:19:08;;;;;;;6.13;3.70;;;2.90;99.90;;;;;;5099822;28;20052;-40
2024/01/16 12:21:41;;;;;;;6.78;3.47;;;2.90;99.90;;;;;;5099567;28;20074;-33
2024/01/16 12:24:07;;;;;;;7.30;3.80;;;2.90;99.90;;;;;;5099630;28;20062;-34
2024/01/16 12:26:33;;;;;;;5.45;3.30;;;3.00;99.90;;;;;;5100288;28;20047;-34
2024/01/16 12:28:59;;;;;;;4.68;3.55;;;3.10;99.90;;;;;;5098715;28;20822;-35
2024/01/16 12:31:25;;;;;;;6.65;3.50;;;3.10;99.90;;;;;;5100211;28;20073;-34
2024/01/16 12:33:52;;;;;;;7.57;3.85;;;3.10;99.90;;;;;;5099387;28;20112;-33
2024/01/16 12:36:17;;;;;;;6.55;3.50;;;3.20;99.90;;;;;;5099799;28;20037;-33
2024/01/16 12:38:44;;;;;;;5.45;3.38;;;3.30;99.90;;;;;;5100664;28;20367;-33
2024/01/16 12:41:11;;;;;;;7.25;3.70;;;3.30;99.90;;;;;;5098271;28;20464;-32
2024/01/16 12:43:37;;;;;;;5.50;3.72;;;3.40;99.90;;;;;;5099829;28;20721;-34
2024/01/16 12:46:03;;;;;;;7.65;3.60;;;3.40;99.90;;;;;;5098007;28;20024;-34
2024/01/16 12:48:29;;;;;;;9.10;4.22;;;3.40;99.90;;;;;;5099043;28;20024;-34
2024/01/16 12:51:02;;;;;;;6.63;3.95;;;3.40;99.90;;;;;;5099705;28;20024;-34
2024/01/16 12:53:28;;;;;;;7.07;4.07;;;3.30;99.90;;;;;;5099543;28;20027;-34
2024/01/16 12:56:08;;;;;;;6.57;4.35;;;3.30;99.90;;;;;;5099109;28;20550;-34